createdAt,value
2023-05-16T00:01:07.332Z,88.35
2023-05-16T00:03:35.490Z,89.45
2023-05-16T00:06:05.236Z,90.18
2023-05-16T00:08:33.002Z,91.57
2023-05-16T00:11:00.718Z,89.64
2023-05-16T00:13:29.644Z,91.25
2023-05-16T00:15:57.761Z,89.82
2023-05-16T00:18:27.135Z,92.85
2023-05-16T00:20:55.528Z,91.94
2023-05-16T00:23:24.836Z,91.04
2023-05-16T00:25:52.536Z,91.73
2023-05-16T00:28:20.292Z,90.50
2023-05-16T00:30:48.371Z,92.23
2023-05-16T00:33:16.123Z,91.91
2023-05-16T00:35:43.995Z,92.69
2023-05-16T00:38:11.666Z,91.46
2023-05-16T00:40:40.924Z,92.82
2023-05-16T00:43:08.682Z,91.83
2023-05-16T00:45:36.572Z,90.70
2023-05-16T00:48:04.785Z,90.90
2023-05-16T00:50:35.530Z,91.64
2023-05-16T00:53:03.597Z,93.16
2023-05-16T00:55:32.427Z,93.56
2023-05-16T00:58:01.572Z,93.61
2023-05-16T01:00:29.702Z,93.62
2023-05-16T01:02:58.029Z,93.62
2023-05-16T01:05:26.275Z,92.17
2023-05-16T01:07:54.144Z,92.32
2023-05-16T01:10:22.129Z,91.71
2023-05-16T01:12:58.925Z,91.98
2023-05-16T01:15:31.589Z,91.31
2023-05-16T01:18:04.530Z,90.54
2023-05-16T01:20:39.778Z,91.16
2023-05-16T01:23:20.945Z,89.72
2023-05-16T01:25:58.511Z,90.10
2023-05-16T01:28:29.377Z,89.88
2023-05-16T01:30:57.096Z,89.32
2023-05-16T01:33:24.796Z,92.10
2023-05-16T01:36:03.912Z,93.08
2023-05-16T01:38:38.693Z,93.39
2023-05-16T01:41:17.360Z,93.98
2023-05-16T01:43:50.410Z,93.37
2023-05-16T01:46:22.791Z,92.17
2023-05-16T01:48:55.069Z,91.73
2023-05-16T01:51:25.773Z,92.98
2023-05-16T01:53:55.588Z,91.71
2023-05-16T01:56:23.988Z,92.00
2023-05-16T01:58:55.264Z,92.87
2023-05-16T02:01:23.011Z,90.95
2023-05-16T02:03:51.640Z,90.98
2023-05-16T02:06:19.548Z,92.22
2023-05-16T02:08:47.252Z,91.38
2023-05-16T02:11:14.972Z,94.77
2023-05-16T02:13:42.696Z,91.72
2023-05-16T02:16:13.281Z,93.28
2023-05-16T02:18:41.416Z,94.28
2023-05-16T02:21:09.250Z,92.47
2023-05-16T02:23:36.988Z,91.43
2023-05-16T02:26:04.850Z,93.56
2023-05-16T02:28:32.620Z,92.73
2023-05-16T02:31:01.082Z,92.11
2023-05-16T02:33:30.584Z,92.90
2023-05-16T02:35:58.328Z,92.31
2023-05-16T02:38:26.080Z,93.78
2023-05-16T02:40:53.819Z,92.28
2023-05-16T02:43:21.487Z,93.89
2023-05-16T02:45:49.197Z,93.19
2023-05-16T02:48:16.979Z,92.84
2023-05-16T02:50:46.225Z,96.03
2023-05-16T02:53:14.004Z,90.42
2023-05-16T02:55:41.964Z,94.08
2023-05-16T02:58:09.729Z,94.63
2023-05-16T03:00:37.476Z,92.65
2023-05-16T03:03:06.145Z,93.21
2023-05-16T03:05:33.969Z,93.04
2023-05-16T03:08:03.082Z,91.83
2023-05-16T03:10:30.811Z,93.33
2023-05-16T03:12:58.478Z,95.68
2023-05-16T03:15:26.863Z,93.97
2023-05-16T03:17:54.874Z,94.44
2023-05-16T03:20:22.759Z,92.74
2023-05-16T03:22:50.437Z,94.68
2023-05-16T03:25:19.657Z,95.06
2023-05-16T03:27:47.391Z,94.51
2023-05-16T03:30:15.673Z,95.78
2023-05-16T03:32:43.480Z,94.22
2023-05-16T03:35:12.010Z,91.96
2023-05-16T03:37:40.260Z,93.10
2023-05-16T03:40:09.795Z,91.27
2023-05-16T03:42:38.823Z,91.19
2023-05-16T03:45:08.019Z,91.39
2023-05-16T03:47:35.946Z,89.97
2023-05-16T03:50:03.860Z,92.38
2023-05-16T03:52:31.626Z,92.27
2023-05-16T03:54:59.333Z,91.55
2023-05-16T03:57:27.475Z,92.41
2023-05-16T03:59:56.694Z,93.00
2023-05-16T04:02:24.649Z,91.52
2023-05-16T04:04:52.647Z,92.06
2023-05-16T04:07:22.441Z,91.36
2023-05-16T04:09:52.756Z,90.88
2023-05-16T04:12:20.570Z,91.05
2023-05-16T04:14:48.375Z,91.88
2023-05-16T04:17:17.722Z,92.06
2023-05-16T04:19:45.515Z,93.74
2023-05-16T04:22:13.193Z,95.30
2023-05-16T04:24:41.052Z,92.39
2023-05-16T04:27:09.456Z,92.93
2023-05-16T04:29:37.395Z,93.32
2023-05-16T04:32:07.494Z,92.84
2023-05-16T04:34:39.798Z,92.18
2023-05-16T04:37:09.570Z,91.09
2023-05-16T04:39:37.326Z,90.92
2023-05-16T04:42:05.684Z,92.24
2023-05-16T04:44:34.503Z,92.19
2023-05-16T04:47:02.315Z,91.19
2023-05-16T04:49:30.016Z,90.58
2023-05-16T04:51:59.461Z,88.82
2023-05-16T04:54:27.456Z,88.34
2023-05-16T04:56:55.204Z,88.34
2023-05-16T04:59:23.076Z,86.85
2023-05-16T05:01:50.897Z,87.23
2023-05-16T05:04:18.826Z,86.27
2023-05-16T05:06:46.665Z,86.47
2023-05-16T05:09:16.136Z,88.10
2023-05-16T05:11:43.882Z,88.04
2023-05-16T05:14:11.590Z,93.13
2023-05-16T05:16:39.441Z,92.38
2023-05-16T05:19:08.873Z,92.14
2023-05-16T05:21:36.672Z,90.85
2023-05-16T05:24:04.427Z,89.99
2023-05-16T05:26:33.551Z,92.33
2023-05-16T05:29:05.847Z,91.20
2023-05-16T05:31:34.898Z,91.61
2023-05-16T05:34:03.278Z,91.88
2023-05-16T05:36:31.024Z,92.87
2023-05-16T05:38:58.896Z,90.26
2023-05-16T05:41:27.346Z,89.41
2023-05-16T05:43:56.431Z,91.15
2023-05-16T05:46:26.330Z,93.18
2023-05-16T05:48:54.222Z,91.65
2023-05-16T05:51:22.045Z,94.90
2023-05-16T05:53:50.044Z,93.54
2023-05-16T05:56:17.816Z,91.86
2023-05-16T05:58:45.839Z,92.40
2023-05-16T06:01:14.907Z,91.32
2023-05-16T06:03:42.919Z,89.85
2023-05-16T06:06:10.985Z,88.55
2023-05-16T06:08:38.646Z,88.28
2023-05-16T06:11:06.692Z,88.10
2023-05-16T06:13:34.449Z,88.81
2023-05-16T06:16:02.204Z,88.67
2023-05-16T06:18:31.404Z,89.94
2023-05-16T06:20:59.129Z,91.53
2023-05-16T06:23:27.178Z,90.64
2023-05-16T06:25:54.968Z,89.99
2023-05-16T06:28:23.919Z,89.49
2023-05-16T06:30:52.193Z,87.26
2023-05-16T06:33:20.279Z,88.33
2023-05-16T06:35:49.651Z,89.20
2023-05-16T06:38:17.551Z,90.76
2023-05-16T06:40:45.415Z,89.88
2023-05-16T06:43:13.178Z,88.67
2023-05-16T06:45:40.978Z,86.79
2023-05-16T06:48:09.621Z,89.19
2023-05-16T06:50:37.465Z,93.63
2023-05-16T06:53:07.379Z,91.07
2023-05-16T06:55:35.176Z,89.99
2023-05-16T06:58:02.957Z,89.01
2023-05-16T07:00:30.722Z,88.02
2023-05-16T07:02:58.672Z,86.36
2023-05-16T07:05:26.788Z,84.70
2023-05-16T07:07:54.703Z,82.12
2023-05-16T07:10:24.189Z,83.23
2023-05-16T07:12:51.891Z,81.56
2023-05-16T07:15:20.307Z,80.62
2023-05-16T07:17:48.189Z,82.67
2023-05-16T07:20:16.005Z,76.63
2023-05-16T07:22:43.787Z,77.42
2023-05-16T07:25:12.918Z,81.60
2023-05-16T07:27:44.624Z,80.61
2023-05-16T07:30:13.843Z,80.38
2023-05-16T07:32:42.637Z,75.67
2023-05-16T07:35:11.118Z,75.34
2023-05-16T07:37:41.463Z,72.68
2023-05-16T07:40:10.452Z,76.40
2023-05-16T07:42:38.232Z,74.55
2023-05-16T07:45:08.598Z,74.90
2023-05-16T07:47:36.609Z,73.71
2023-05-16T07:50:04.596Z,72.19
2023-05-16T07:52:32.389Z,71.21
2023-05-16T07:55:00.419Z,73.38
2023-05-16T07:57:28.461Z,73.08
2023-05-16T07:59:56.661Z,72.40
2023-05-16T08:02:30.493Z,71.57
2023-05-16T08:04:58.712Z,66.04
2023-05-16T08:07:26.959Z,66.71
2023-05-16T08:09:54.659Z,66.42
2023-05-16T08:12:22.467Z,66.73
2023-05-16T08:14:50.246Z,66.86
2023-05-16T08:17:18.017Z,65.94
2023-05-16T08:19:47.359Z,69.14
2023-05-16T08:22:15.113Z,66.60
2023-05-16T08:24:42.863Z,65.12
2023-05-16T08:27:12.086Z,68.73
2023-05-16T08:29:39.878Z,66.93
2023-05-16T08:32:09.730Z,67.22
2023-05-16T08:34:37.790Z,63.25
2023-05-16T08:37:07.030Z,64.54
2023-05-16T08:39:34.917Z,63.80
2023-05-16T08:42:02.788Z,63.86
2023-05-16T08:44:30.694Z,66.03
2023-05-16T08:46:58.886Z,59.32
2023-05-16T08:49:28.799Z,63.03
2023-05-16T08:51:59.317Z,59.63
2023-05-16T08:54:28.725Z,59.89
2023-05-16T08:56:58.695Z,60.50
2023-05-16T08:59:26.614Z,62.16
2023-05-16T09:01:54.365Z,57.09
2023-05-16T09:04:22.480Z,59.75
2023-05-16T09:06:52.270Z,59.97
2023-05-16T09:09:20.108Z,60.17
2023-05-16T09:11:49.390Z,56.52
2023-05-16T09:14:17.836Z,55.39
2023-05-16T09:19:14.677Z,56.96
2023-05-16T09:21:43.470Z,56.25
2023-05-16T09:24:11.424Z,55.79
2023-05-16T09:26:40.186Z,57.31
2023-05-16T09:29:13.498Z,55.46
2023-05-16T09:31:41.454Z,55.52
2023-05-16T09:34:11.335Z,55.56
2023-05-16T09:36:41.010Z,55.08
2023-05-16T09:39:09.938Z,54.04
2023-05-16T09:41:37.721Z,53.45
2023-05-16T09:44:06.808Z,53.70
2023-05-16T09:46:38.470Z,53.79
2023-05-16T09:49:06.565Z,53.21
2023-05-16T09:51:34.505Z,53.32
2023-05-16T09:54:02.251Z,51.46
2023-05-16T09:56:30.674Z,53.68
2023-05-16T09:58:58.513Z,50.51
2023-05-16T10:01:26.974Z,51.78
2023-05-16T10:03:56.435Z,50.37
2023-05-16T10:06:25.107Z,49.87
2023-05-16T10:08:53.024Z,50.35
2023-05-16T10:11:21.708Z,51.09
2023-05-16T10:13:53.376Z,49.61
2023-05-16T10:16:23.623Z,50.04
2023-05-16T10:18:52.281Z,48.77
2023-05-16T10:21:24.588Z,50.05
2023-05-16T10:23:53.663Z,49.43
2023-05-16T10:26:21.932Z,50.35
2023-05-16T10:28:50.007Z,49.39
2023-05-16T10:31:18.230Z,50.01
2023-05-16T10:33:46.938Z,49.23
2023-05-16T10:36:15.660Z,51.55
2023-05-16T10:38:46.720Z,49.44
2023-05-16T10:41:15.099Z,47.83
2023-05-16T10:43:46.630Z,47.70
2023-05-16T10:46:15.702Z,48.26
2023-05-16T10:48:43.698Z,49.39
2023-05-16T10:51:37.442Z,46.85
2023-05-16T10:54:10.809Z,47.84
2023-05-16T10:56:39.142Z,46.97
2023-05-16T10:59:24.577Z,46.24
2023-05-16T11:01:54.627Z,45.96
2023-05-16T11:04:22.546Z,47.05
2023-05-16T11:06:54.779Z,47.02
2023-05-16T11:09:27.609Z,48.48
2023-05-16T11:11:57.305Z,47.11
2023-05-16T11:14:28.852Z,44.47
2023-05-16T11:17:03.224Z,43.59
2023-05-16T11:19:36.212Z,45.63
2023-05-16T11:22:23.236Z,46.27
2023-05-16T11:24:58.199Z,47.66
2023-05-16T11:27:28.971Z,47.08
2023-05-16T11:30:03.257Z,47.06
2023-05-16T11:32:33.096Z,47.10
2023-05-16T11:35:01.204Z,44.25
2023-05-16T11:37:29.397Z,45.23
2023-05-16T11:40:02.196Z,42.64
2023-05-16T11:42:33.934Z,45.91
2023-05-16T11:45:08.916Z,45.41
2023-05-16T11:47:41.293Z,46.59
2023-05-16T11:50:13.851Z,44.71
2023-05-16T11:52:44.520Z,45.35
2023-05-16T11:55:21.528Z,44.64
2023-05-16T11:57:58.140Z,45.27
2023-05-16T12:00:27.592Z,43.57
2023-05-16T12:03:02.901Z,43.40
2023-05-16T12:05:32.733Z,45.78
2023-05-16T12:08:01.030Z,45.56
2023-05-16T12:10:34.185Z,43.64
2023-05-16T12:13:03.331Z,46.19
2023-05-16T12:15:31.636Z,45.14
2023-05-16T12:17:59.864Z,44.41
2023-05-16T12:20:27.997Z,43.53
2023-05-16T12:22:58.957Z,44.02
2023-05-16T12:25:28.948Z,44.50
2023-05-16T12:27:59.647Z,44.02
2023-05-16T12:30:29.435Z,43.73
2023-05-16T12:32:58.546Z,43.35
2023-05-16T12:35:27.358Z,43.71
2023-05-16T12:37:56.151Z,42.94
2023-05-16T12:40:24.168Z,41.90
2023-05-16T12:42:52.632Z,42.70
2023-05-16T12:45:23.397Z,43.82
2023-05-16T12:47:51.590Z,43.98
2023-05-16T12:50:19.418Z,46.76
2023-05-16T12:52:51.653Z,46.03
2023-05-16T12:55:20.407Z,46.89
2023-05-16T12:57:49.199Z,45.73
2023-05-16T13:00:21.306Z,46.42
2023-05-16T13:02:50.756Z,46.14
2023-05-16T13:05:18.843Z,46.03
2023-05-16T13:07:46.725Z,46.61
2023-05-16T13:10:14.470Z,46.53
2023-05-16T13:12:42.659Z,46.53
2023-05-16T13:15:12.899Z,46.69
2023-05-16T13:17:43.981Z,47.39
2023-05-16T13:20:15.033Z,46.48
2023-05-16T13:22:43.688Z,47.33
2023-05-16T13:25:12.299Z,47.00
2023-05-16T13:27:40.181Z,47.31
2023-05-16T13:30:09.220Z,46.76
2023-05-16T13:32:37.070Z,48.06
2023-05-16T13:35:05.996Z,46.61
2023-05-16T13:37:35.348Z,43.95
2023-05-16T13:40:03.562Z,46.13
2023-05-16T13:42:31.402Z,45.51
2023-05-16T13:45:01.470Z,42.24
2023-05-16T13:47:29.683Z,41.48
2023-05-16T13:49:57.431Z,42.87
2023-05-16T13:52:25.186Z,44.38
2023-05-16T13:54:54.375Z,43.76
2023-05-16T13:57:23.151Z,43.16
2023-05-16T14:02:21.792Z,43.52
2023-05-16T14:04:50.042Z,43.85
2023-05-16T14:07:18.031Z,43.85
2023-05-16T14:09:45.864Z,42.65
2023-05-16T14:12:14.972Z,43.92
2023-05-16T14:14:42.751Z,42.60
2023-05-16T14:17:10.564Z,42.89
2023-05-16T14:19:38.391Z,42.87
2023-05-16T14:22:06.594Z,42.10
2023-05-16T14:24:34.834Z,43.85
2023-05-16T14:27:03.338Z,43.10
2023-05-16T14:29:32.787Z,43.23
2023-05-16T14:32:00.696Z,42.96
2023-05-16T14:34:28.488Z,45.05
2023-05-16T14:36:56.193Z,42.21
2023-05-16T14:39:24.070Z,42.32
2023-05-16T14:41:51.794Z,44.35
2023-05-16T14:44:21.650Z,45.87
2023-05-16T14:46:51.739Z,46.88
2023-05-16T14:49:19.625Z,45.66
2023-05-16T14:51:49.305Z,45.59
2023-05-16T14:54:17.377Z,45.82
2023-05-16T14:56:46.099Z,44.99
2023-05-16T14:59:14.274Z,44.81
2023-05-16T15:01:42.138Z,42.88
2023-05-16T15:04:11.407Z,45.97
2023-05-16T15:06:39.159Z,46.54
2023-05-16T15:09:07.073Z,49.09
2023-05-16T15:11:34.811Z,47.49
2023-05-16T15:14:02.682Z,45.02
2023-05-16T15:16:31.109Z,44.27
2023-05-16T15:18:58.933Z,44.09
2023-05-16T15:21:28.192Z,44.23
2023-05-16T15:23:57.754Z,43.05
2023-05-16T15:26:25.506Z,44.81
2023-05-16T15:28:55.420Z,45.40
2023-05-16T15:31:23.682Z,44.74
2023-05-16T15:33:51.498Z,44.40
2023-05-16T15:36:19.263Z,46.06
2023-05-16T15:38:48.372Z,46.04
2023-05-16T15:41:32.000Z,46.92
2023-05-16T15:44:04.082Z,47.39
2023-05-16T15:46:32.998Z,47.66
2023-05-16T15:49:00.997Z,48.01
2023-05-16T15:51:28.761Z,47.78
2023-05-16T15:53:57.848Z,47.37
2023-05-16T15:56:25.782Z,46.91
2023-05-16T15:58:56.166Z,48.07
2023-05-16T16:01:23.986Z,48.39
2023-05-16T16:03:51.881Z,49.66
2023-05-16T16:06:19.925Z,47.08
2023-05-16T16:08:47.861Z,49.40
2023-05-16T16:11:17.014Z,48.32
2023-05-16T16:13:44.736Z,48.38
2023-05-16T16:16:12.613Z,47.64
2023-05-16T16:18:40.410Z,47.57
2023-05-16T16:21:08.566Z,48.65
2023-05-16T16:23:36.351Z,49.30
2023-05-16T16:26:04.270Z,49.86
2023-05-16T16:28:33.567Z,48.54
2023-05-16T16:31:01.383Z,50.30
2023-05-16T16:33:29.131Z,49.63
2023-05-16T16:35:56.880Z,51.02
2023-05-16T16:38:24.661Z,50.84
2023-05-16T16:40:52.454Z,52.06
2023-05-16T16:43:20.190Z,52.03
2023-05-16T16:45:49.656Z,50.41
2023-05-16T16:48:17.550Z,50.30
2023-05-16T16:50:45.357Z,51.83
2023-05-16T16:53:13.301Z,50.68
2023-05-16T16:55:41.255Z,48.97
2023-05-16T16:58:09.033Z,48.80
2023-05-16T17:00:36.868Z,50.81
2023-05-16T17:03:06.306Z,50.25
2023-05-16T17:05:34.117Z,49.97
2023-05-16T17:08:01.836Z,50.70
2023-05-16T17:10:30.218Z,51.82
2023-05-16T17:13:02.974Z,51.60
2023-05-16T17:15:30.846Z,49.74
2023-05-16T17:17:58.748Z,50.48
2023-05-16T17:20:27.925Z,51.16
2023-05-16T17:22:55.811Z,51.29
2023-05-16T17:25:23.595Z,51.62
2023-05-16T17:27:51.334Z,51.54
2023-05-16T17:30:19.121Z,51.90
2023-05-16T17:32:46.960Z,50.39
2023-05-16T17:35:15.161Z,51.17
2023-05-16T17:37:44.305Z,50.43
2023-05-16T17:40:17.022Z,51.00
2023-05-16T17:42:45.827Z,50.85
2023-05-16T17:45:14.869Z,50.07
2023-05-16T17:47:43.245Z,50.01
2023-05-16T17:50:11.880Z,50.52
2023-05-16T17:52:40.109Z,50.69
2023-05-16T17:55:10.694Z,50.36
2023-05-16T17:57:38.904Z,49.52
2023-05-16T18:00:07.906Z,49.04
2023-05-16T18:02:38.406Z,50.38
2023-05-16T18:05:07.713Z,49.42
2023-05-16T18:07:35.588Z,49.65
2023-05-16T18:10:03.593Z,49.37
2023-05-16T18:12:32.706Z,50.52
2023-05-16T18:15:00.516Z,51.56
2023-05-16T18:17:28.704Z,51.64
2023-05-16T18:19:56.651Z,51.30
2023-05-16T18:22:24.569Z,51.13
2023-05-16T18:24:52.354Z,50.41
2023-05-16T18:27:20.108Z,51.06
2023-05-16T18:29:49.214Z,51.15
2023-05-16T18:32:17.018Z,51.99
2023-05-16T18:34:44.754Z,52.00
2023-05-16T18:37:12.463Z,51.34
2023-05-16T18:39:41.588Z,52.74
2023-05-16T18:42:09.707Z,52.79
2023-05-16T18:44:37.749Z,52.99
2023-05-16T18:47:07.710Z,52.04
2023-05-16T18:49:38.992Z,53.15
2023-05-16T18:52:08.391Z,53.12
2023-05-16T18:54:36.872Z,54.50
2023-05-16T18:57:05.402Z,54.77
2023-05-16T18:59:33.876Z,54.81
2023-05-16T19:02:01.885Z,54.93
2023-05-16T19:04:31.248Z,54.43
2023-05-16T19:06:59.487Z,54.76
2023-05-16T19:09:28.034Z,55.37
2023-05-16T19:11:56.679Z,55.77
2023-05-16T19:14:24.501Z,54.80
2023-05-16T19:16:52.414Z,56.01
2023-05-16T19:19:21.003Z,57.07
2023-05-16T19:21:50.255Z,57.44
2023-05-16T19:24:18.199Z,58.98
2023-05-16T19:26:46.078Z,60.21
2023-05-16T19:29:13.908Z,60.60
2023-05-16T19:31:41.681Z,61.79
2023-05-16T19:34:11.182Z,60.32
2023-05-16T19:36:38.997Z,61.58
2023-05-16T19:39:08.089Z,62.43
2023-05-16T19:41:36.664Z,61.25
2023-05-16T19:44:04.637Z,59.57
2023-05-16T19:46:32.359Z,61.55
2023-05-16T19:49:00.196Z,62.89
2023-05-16T19:51:40.692Z,62.81
2023-05-16T19:54:10.770Z,62.52
2023-05-16T19:56:38.543Z,64.59
2023-05-16T19:59:06.288Z,66.23
2023-05-16T20:01:34.091Z,68.12
2023-05-16T20:04:02.519Z,66.19
2023-05-16T20:06:31.535Z,67.57
2023-05-16T20:08:59.302Z,66.83
2023-05-16T20:11:28.436Z,70.22
2023-05-16T20:13:59.438Z,67.76
2023-05-16T20:16:27.707Z,68.96
2023-05-16T20:18:55.576Z,68.68
2023-05-16T20:21:23.450Z,68.58
2023-05-16T20:23:51.223Z,67.48
2023-05-16T20:26:19.000Z,69.87
2023-05-16T20:28:48.154Z,70.12
2023-05-16T20:31:15.965Z,70.46
2023-05-16T20:33:43.868Z,72.20
2023-05-16T20:36:11.693Z,74.60
2023-05-16T20:38:39.515Z,72.58
2023-05-16T20:41:07.300Z,72.83
2023-05-16T20:43:35.070Z,71.77
2023-05-16T20:46:04.324Z,72.66
2023-05-16T20:48:32.443Z,73.79
2023-05-16T20:51:01.295Z,72.60
2023-05-16T20:53:29.452Z,73.74
2023-05-16T20:55:57.227Z,72.83
2023-05-16T20:58:24.995Z,73.12
2023-05-16T21:00:52.742Z,75.00
2023-05-16T21:03:22.115Z,74.18
2023-05-16T21:05:50.110Z,72.33
2023-05-16T21:08:17.926Z,73.49
2023-05-16T21:10:45.650Z,75.71
2023-05-16T21:13:13.436Z,74.23
2023-05-16T21:15:41.250Z,73.98
2023-05-16T21:18:09.128Z,73.34
2023-05-16T21:20:38.435Z,73.48
2023-05-16T21:23:06.185Z,72.85
2023-05-16T21:25:33.917Z,73.79
2023-05-16T21:28:01.696Z,73.22
2023-05-16T21:30:29.472Z,72.21
2023-05-16T21:32:57.240Z,72.52
2023-05-16T21:35:25.329Z,70.73
2023-05-16T21:37:54.526Z,72.23
2023-05-16T21:40:24.981Z,71.24
2023-05-16T21:42:53.245Z,70.71
2023-05-16T21:45:21.631Z,71.27
2023-05-16T21:47:49.583Z,72.77
2023-05-16T21:50:18.232Z,73.67
2023-05-16T21:52:46.141Z,72.91
2023-05-16T21:55:15.309Z,74.03
2023-05-16T21:57:43.166Z,72.37
2023-05-16T22:00:12.630Z,73.47
2023-05-16T22:02:40.458Z,72.96
2023-05-16T22:05:09.409Z,74.10
2023-05-16T22:07:37.607Z,71.99
2023-05-16T22:10:07.397Z,74.16
2023-05-16T22:12:36.587Z,73.55
2023-05-16T22:15:05.300Z,72.61
2023-05-16T22:17:33.189Z,70.79
2023-05-16T22:20:02.277Z,71.92
2023-05-16T22:22:30.087Z,70.12
2023-05-16T22:24:57.826Z,70.11
2023-05-16T22:27:25.746Z,70.09
2023-05-16T22:29:54.882Z,71.64
2023-05-16T22:32:22.893Z,70.04
2023-05-16T22:34:50.758Z,71.42
2023-05-16T22:37:18.569Z,71.37
2023-05-16T22:39:46.346Z,70.02
2023-05-16T22:42:14.058Z,69.92
2023-05-16T22:44:41.769Z,68.92
2023-05-16T22:47:11.024Z,69.24
2023-05-16T22:49:38.806Z,70.71
2023-05-16T22:52:06.946Z,70.22
2023-05-16T22:54:34.672Z,70.18
2023-05-16T22:57:02.425Z,69.12
2023-05-16T22:59:30.522Z,69.19
2023-05-16T23:01:58.332Z,70.08
2023-05-16T23:04:27.505Z,70.69
2023-05-16T23:06:55.248Z,69.83
2023-05-16T23:09:23.171Z,69.45
2023-05-16T23:11:51.244Z,70.59
2023-05-16T23:14:18.981Z,71.86
2023-05-16T23:16:46.714Z,71.85
2023-05-16T23:19:14.619Z,73.54
2023-05-16T23:21:44.545Z,72.87
2023-05-16T23:24:12.300Z,73.46
2023-05-16T23:26:40.036Z,72.10
2023-05-16T23:29:07.887Z,72.21
2023-05-16T23:31:35.727Z,71.53
2023-05-16T23:34:03.539Z,73.57
2023-05-16T23:36:31.406Z,72.95
2023-05-16T23:39:00.660Z,74.32
2023-05-16T23:41:28.441Z,72.71
2023-05-16T23:43:56.244Z,72.98
2023-05-16T23:46:23.971Z,72.24
2023-05-16T23:48:51.730Z,72.99
2023-05-16T23:51:19.575Z,71.58
2023-05-16T23:53:47.309Z,73.19
2023-05-16T23:56:16.386Z,72.56
2023-05-16T23:58:44.168Z,71.22
